sensor_id;sensor_type;location;lat;lon;timestamp;P1;durP1;ratioP1;P2;durP2;ratioP2
11531;SDS011;5822;51.000;5.874;2023-10-13T00:01:22;14.25;;;13.55;;
11531;SDS011;5822;51.000;5.874;2023-10-13T00:03:48;14.47;;;13.77;;
11531;SDS011;5822;51.000;5.874;2023-10-13T00:06:14;14.20;;;13.50;;
11531;SDS011;5822;51.000;5.874;2023-10-13T00:08:40;14.32;;;13.63;;
11531;SDS011;5822;51.000;5.874;2023-10-13T00:11:06;14.30;;;13.55;;
11531;SDS011;5822;51.000;5.874;2023-10-13T00:13:37;14.02;;;13.32;;
11531;SDS011;5822;51.000;5.874;2023-10-13T00:16:15;14.35;;;13.65;;
11531;SDS011;5822;51.000;5.874;2023-10-13T00:18:52;14.70;;;14.00;;
11531;SDS011;5822;51.000;5.874;2023-10-13T00:21:23;14.30;;;13.60;;
11531;SDS011;5822;51.000;5.874;2023-10-13T00:23:58;13.90;;;13.20;;
11531;SDS011;5822;51.000;5.874;2023-10-13T00:26:31;13.95;;;13.25;;
11531;SDS011;5822;51.000;5.874;2023-10-13T00:29:01;14.00;;;13.30;;
11531;SDS011;5822;51.000;5.874;2023-10-13T00:31:40;14.00;;;13.30;;
11531;SDS011;5822;51.000;5.874;2023-10-13T00:34:08;14.00;;;13.30;;
11531;SDS011;5822;51.000;5.874;2023-10-13T00:36:40;14.10;;;13.40;;
11531;SDS011;5822;51.000;5.874;2023-10-13T00:39:13;14.00;;;13.30;;
11531;SDS011;5822;51.000;5.874;2023-10-13T00:41:42;14.25;;;13.48;;
11531;SDS011;5822;51.000;5.874;2023-10-13T00:44:20;14.30;;;13.60;;
11531;SDS011;5822;51.000;5.874;2023-10-13T00:46:53;14.13;;;13.43;;
11531;SDS011;5822;51.000;5.874;2023-10-13T00:49:22;14.00;;;13.30;;
11531;SDS011;5822;51.000;5.874;2023-10-13T00:51:48;14.40;;;13.70;;
11531;SDS011;5822;51.000;5.874;2023-10-13T00:54:15;14.43;;;13.73;;
11531;SDS011;5822;51.000;5.874;2023-10-13T00:56:43;13.82;;;13.13;;
11531;SDS011;5822;51.000;5.874;2023-10-13T00:59:22;14.15;;;13.45;;
11531;SDS011;5822;51.000;5.874;2023-10-13T01:01:50;13.82;;;13.13;;
11531;SDS011;5822;51.000;5.874;2023-10-13T01:04:20;14.20;;;13.50;;
11531;SDS011;5822;51.000;5.874;2023-10-13T01:06:49;14.00;;;13.30;;
11531;SDS011;5822;51.000;5.874;2023-10-13T01:09:16;14.75;;;14.00;;
11531;SDS011;5822;51.000;5.874;2023-10-13T01:11:46;14.10;;;13.40;;
11531;SDS011;5822;51.000;5.874;2023-10-13T01:14:17;14.55;;;13.85;;
11531;SDS011;5822;51.000;5.874;2023-10-13T01:16:44;14.02;;;13.32;;
11531;SDS011;5822;51.000;5.874;2023-10-13T01:19:14;14.17;;;13.47;;
11531;SDS011;5822;51.000;5.874;2023-10-13T01:21:44;13.98;;;13.27;;
11531;SDS011;5822;51.000;5.874;2023-10-13T01:24:12;13.93;;;13.23;;
11531;SDS011;5822;51.000;5.874;2023-10-13T01:26:42;14.05;;;13.35;;
11531;SDS011;5822;51.000;5.874;2023-10-13T01:29:08;14.07;;;13.38;;
11531;SDS011;5822;51.000;5.874;2023-10-13T01:31:42;14.50;;;13.80;;
11531;SDS011;5822;51.000;5.874;2023-10-13T01:34:18;14.48;;;13.77;;
11531;SDS011;5822;51.000;5.874;2023-10-13T01:36:50;14.00;;;13.30;;
11531;SDS011;5822;51.000;5.874;2023-10-13T01:39:21;14.20;;;13.50;;
11531;SDS011;5822;51.000;5.874;2023-10-13T01:41:52;14.25;;;13.55;;
11531;SDS011;5822;51.000;5.874;2023-10-13T01:44:24;14.40;;;13.70;;
11531;SDS011;5822;51.000;5.874;2023-10-13T01:46:55;13.93;;;13.23;;
11531;SDS011;5822;51.000;5.874;2023-10-13T01:49:24;13.88;;;13.18;;
11531;SDS011;5822;51.000;5.874;2023-10-13T01:51:52;14.10;;;13.40;;
11531;SDS011;5822;51.000;5.874;2023-10-13T01:54:18;14.20;;;13.50;;
11531;SDS011;5822;51.000;5.874;2023-10-13T01:56:46;14.33;;;13.63;;
11531;SDS011;5822;51.000;5.874;2023-10-13T01:59:14;14.18;;;13.48;;
11531;SDS011;5822;51.000;5.874;2023-10-13T02:01:40;14.40;;;13.70;;
11531;SDS011;5822;51.000;5.874;2023-10-13T02:04:07;14.60;;;13.90;;
11531;SDS011;5822;51.000;5.874;2023-10-13T02:06:34;14.70;;;13.90;;
11531;SDS011;5822;51.000;5.874;2023-10-13T02:09:04;14.60;;;13.90;;
11531;SDS011;5822;51.000;5.874;2023-10-13T02:11:50;13.90;;;13.20;;
11531;SDS011;5822;51.000;5.874;2023-10-13T02:14:19;14.13;;;13.43;;
11531;SDS011;5822;51.000;5.874;2023-10-13T02:16:47;14.00;;;13.30;;
11531;SDS011;5822;51.000;5.874;2023-10-13T02:19:15;13.77;;;13.10;;
11531;SDS011;5822;51.000;5.874;2023-10-13T02:21:44;14.07;;;13.38;;
11531;SDS011;5822;51.000;5.874;2023-10-13T02:24:10;14.07;;;13.38;;
11531;SDS011;5822;51.000;5.874;2023-10-13T02:26:56;14.27;;;13.57;;
11531;SDS011;5822;51.000;5.874;2023-10-13T02:29:28;14.85;;;14.05;;
11531;SDS011;5822;51.000;5.874;2023-10-13T02:31:54;14.20;;;13.50;;
11531;SDS011;5822;51.000;5.874;2023-10-13T02:34:20;14.65;;;13.85;;
11531;SDS011;5822;51.000;5.874;2023-10-13T02:36:48;14.02;;;13.32;;
11531;SDS011;5822;51.000;5.874;2023-10-13T02:39:17;13.65;;;12.95;;
11531;SDS011;5822;51.000;5.874;2023-10-13T02:41:50;13.70;;;13.10;;
11531;SDS011;5822;51.000;5.874;2023-10-13T02:44:17;14.10;;;13.38;;
11531;SDS011;5822;51.000;5.874;2023-10-13T02:46:55;14.20;;;13.50;;
11531;SDS011;5822;51.000;5.874;2023-10-13T02:49:27;14.23;;;13.52;;
11531;SDS011;5822;51.000;5.874;2023-10-13T02:51:59;14.60;;;13.90;;
11531;SDS011;5822;51.000;5.874;2023-10-13T02:54:30;14.48;;;13.77;;
11531;SDS011;5822;51.000;5.874;2023-10-13T02:56:56;13.85;;;13.15;;
11531;SDS011;5822;51.000;5.874;2023-10-13T02:59:28;13.77;;;13.10;;
11531;SDS011;5822;51.000;5.874;2023-10-13T03:02:20;13.93;;;13.23;;
11531;SDS011;5822;51.000;5.874;2023-10-13T03:04:51;13.80;;;13.10;;
11531;SDS011;5822;51.000;5.874;2023-10-13T03:07:24;13.90;;;13.20;;
11531;SDS011;5822;51.000;5.874;2023-10-13T03:09:56;13.70;;;13.00;;
11531;SDS011;5822;51.000;5.874;2023-10-13T03:12:34;13.88;;;13.18;;
11531;SDS011;5822;51.000;5.874;2023-10-13T03:15:01;13.85;;;13.15;;
11531;SDS011;5822;51.000;5.874;2023-10-13T03:17:36;14.00;;;13.30;;
11531;SDS011;5822;51.000;5.874;2023-10-13T03:20:02;14.00;;;13.30;;
11531;SDS011;5822;51.000;5.874;2023-10-13T03:22:30;14.02;;;13.32;;
11531;SDS011;5822;51.000;5.874;2023-10-13T03:24:56;13.73;;;13.02;;
11531;SDS011;5822;51.000;5.874;2023-10-13T03:27:38;12.97;;;12.37;;
11531;SDS011;5822;51.000;5.874;2023-10-13T03:30:26;13.85;;;13.15;;
11531;SDS011;5822;51.000;5.874;2023-10-13T03:33:03;13.65;;;12.95;;
11531;SDS011;5822;51.000;5.874;2023-10-13T03:35:36;13.80;;;13.10;;
11531;SDS011;5822;51.000;5.874;2023-10-13T03:38:03;13.85;;;13.15;;
11531;SDS011;5822;51.000;5.874;2023-10-13T03:40:41;13.70;;;13.00;;
11531;SDS011;5822;51.000;5.874;2023-10-13T03:43:13;13.77;;;13.07;;
11531;SDS011;5822;51.000;5.874;2023-10-13T03:45:45;14.15;;;13.45;;
11531;SDS011;5822;51.000;5.874;2023-10-13T03:48:17;14.25;;;13.55;;
11531;SDS011;5822;51.000;5.874;2023-10-13T03:50:50;14.30;;;13.60;;
11531;SDS011;5822;51.000;5.874;2023-10-13T03:53:27;14.30;;;13.60;;
11531;SDS011;5822;51.000;5.874;2023-10-13T03:55:58;14.48;;;13.77;;
11531;SDS011;5822;51.000;5.874;2023-10-13T03:58:37;13.77;;;13.07;;
11531;SDS011;5822;51.000;5.874;2023-10-13T04:01:13;14.20;;;13.50;;
11531;SDS011;5822;51.000;5.874;2023-10-13T04:03:42;14.25;;;13.52;;
11531;SDS011;5822;51.000;5.874;2023-10-13T04:06:28;14.07;;;13.38;;
11531;SDS011;5822;51.000;5.874;2023-10-13T04:09:16;14.20;;;13.50;;
11531;SDS011;5822;51.000;5.874;2023-10-13T04:11:55;14.05;;;13.25;;
11531;SDS011;5822;51.000;5.874;2023-10-13T04:14:32;13.80;;;13.10;;
11531;SDS011;5822;51.000;5.874;2023-10-13T04:17:21;13.50;;;12.90;;
11531;SDS011;5822;51.000;5.874;2023-10-13T04:19:47;13.27;;;12.57;;
11531;SDS011;5822;51.000;5.874;2023-10-13T04:22:32;13.27;;;12.57;;
11531;SDS011;5822;51.000;5.874;2023-10-13T04:28:00;13.82;;;13.13;;
11531;SDS011;5822;51.000;5.874;2023-10-13T04:30:39;13.88;;;13.18;;
11531;SDS011;5822;51.000;5.874;2023-10-13T04:39:00;13.90;;;13.20;;
11531;SDS011;5822;51.000;5.874;2023-10-13T04:41:34;14.50;;;13.70;;
11531;SDS011;5822;51.000;5.874;2023-10-13T04:44:06;14.50;;;13.80;;
11531;SDS011;5822;51.000;5.874;2023-10-13T04:46:59;14.63;;;13.82;;
11531;SDS011;5822;51.000;5.874;2023-10-13T04:49:28;14.82;;;14.02;;
11531;SDS011;5822;51.000;5.874;2023-10-13T04:52:15;14.40;;;13.70;;
11531;SDS011;5822;51.000;5.874;2023-10-13T04:55:00;14.55;;;13.77;;
11531;SDS011;5822;51.000;5.874;2023-10-13T04:57:41;14.70;;;13.90;;
11531;SDS011;5822;51.000;5.874;2023-10-13T05:00:15;15.00;;;14.10;;
11531;SDS011;5822;51.000;5.874;2023-10-13T05:02:46;14.70;;;13.90;;
11531;SDS011;5822;51.000;5.874;2023-10-13T05:05:41;15.05;;;14.25;;
11531;SDS011;5822;51.000;5.874;2023-10-13T05:08:30;15.10;;;14.30;;
11531;SDS011;5822;51.000;5.874;2023-10-13T05:11:15;16.60;;;15.60;;
11531;SDS011;5822;51.000;5.874;2023-10-13T05:13:59;16.60;;;15.60;;
11531;SDS011;5822;51.000;5.874;2023-10-13T05:16:43;16.70;;;15.70;;
11531;SDS011;5822;51.000;5.874;2023-10-13T05:19:26;16.27;;;15.38;;
11531;SDS011;5822;51.000;5.874;2023-10-13T05:22:10;16.60;;;15.60;;
11531;SDS011;5822;51.000;5.874;2023-10-13T05:24:55;16.10;;;15.20;;
11531;SDS011;5822;51.000;5.874;2023-10-13T05:27:39;16.65;;;15.65;;
11531;SDS011;5822;51.000;5.874;2023-10-13T05:30:23;16.67;;;15.68;;
11531;SDS011;5822;51.000;5.874;2023-10-13T05:33:07;16.67;;;15.67;;
11531;SDS011;5822;51.000;5.874;2023-10-13T05:35:51;16.70;;;15.70;;
11531;SDS011;5822;51.000;5.874;2023-10-13T05:38:35;16.80;;;15.80;;
11531;SDS011;5822;51.000;5.874;2023-10-13T05:41:19;16.42;;;15.48;;
11531;SDS011;5822;51.000;5.874;2023-10-13T05:44:04;16.52;;;15.60;;
11531;SDS011;5822;51.000;5.874;2023-10-13T05:46:48;16.20;;;15.30;;
11531;SDS011;5822;51.000;5.874;2023-10-13T05:49:32;16.00;;;15.10;;
11531;SDS011;5822;51.000;5.874;2023-10-13T05:52:17;16.50;;;15.50;;
11531;SDS011;5822;51.000;5.874;2023-10-13T05:55:02;16.07;;;15.17;;
11531;SDS011;5822;51.000;5.874;2023-10-13T05:57:46;16.67;;;15.63;;
11531;SDS011;5822;51.000;5.874;2023-10-13T06:00:30;16.83;;;15.82;;
11531;SDS011;5822;51.000;5.874;2023-10-13T06:03:14;18.42;;;17.42;;
11531;SDS011;5822;51.000;5.874;2023-10-13T06:05:58;22.60;;;21.40;;
11531;SDS011;5822;51.000;5.874;2023-10-13T06:08:42;23.08;;;21.85;;
11531;SDS011;5822;51.000;5.874;2023-10-13T06:11:26;24.48;;;23.25;;
11531;SDS011;5822;51.000;5.874;2023-10-13T06:14:10;23.15;;;21.85;;
11531;SDS011;5822;51.000;5.874;2023-10-13T06:16:54;21.98;;;20.80;;
11531;SDS011;5822;51.000;5.874;2023-10-13T06:19:40;21.63;;;20.52;;
11531;SDS011;5822;51.000;5.874;2023-10-13T06:22:24;21.65;;;20.55;;
11531;SDS011;5822;51.000;5.874;2023-10-13T06:25:08;21.40;;;20.30;;
11531;SDS011;5822;51.000;5.874;2023-10-13T06:27:52;21.52;;;20.42;;
11531;SDS011;5822;51.000;5.874;2023-10-13T06:30:36;20.63;;;19.52;;
11531;SDS011;5822;51.000;5.874;2023-10-13T06:33:03;20.27;;;19.20;;
11531;SDS011;5822;51.000;5.874;2023-10-13T06:35:30;19.67;;;18.65;;
11531;SDS011;5822;51.000;5.874;2023-10-13T06:37:56;20.63;;;19.52;;
11531;SDS011;5822;51.000;5.874;2023-10-13T06:40:25;17.65;;;16.65;;
11531;SDS011;5822;51.000;5.874;2023-10-13T06:42:54;17.13;;;16.23;;
11531;SDS011;5822;51.000;5.874;2023-10-13T06:45:45;17.00;;;16.10;;
11531;SDS011;5822;51.000;5.874;2023-10-13T06:48:22;17.50;;;16.50;;
11531;SDS011;5822;51.000;5.874;2023-10-13T06:50:49;17.35;;;16.35;;
11531;SDS011;5822;51.000;5.874;2023-10-13T06:53:16;16.85;;;15.85;;
11531;SDS011;5822;51.000;5.874;2023-10-13T06:55:42;16.93;;;15.93;;
11531;SDS011;5822;51.000;5.874;2023-10-13T06:58:11;17.20;;;16.20;;
11531;SDS011;5822;51.000;5.874;2023-10-13T07:00:39;16.90;;;16.00;;
11531;SDS011;5822;51.000;5.874;2023-10-13T07:03:17;17.00;;;16.10;;
11531;SDS011;5822;51.000;5.874;2023-10-13T07:05:44;16.90;;;16.00;;
11531;SDS011;5822;51.000;5.874;2023-10-13T07:08:12;17.00;;;16.10;;
11531;SDS011;5822;51.000;5.874;2023-10-13T07:10:48;17.02;;;16.10;;
11531;SDS011;5822;51.000;5.874;2023-10-13T07:13:27;17.05;;;16.15;;
11531;SDS011;5822;51.000;5.874;2023-10-13T07:16:00;16.80;;;15.90;;
11531;SDS011;5822;51.000;5.874;2023-10-13T07:18:30;16.33;;;15.50;;
11531;SDS011;5822;51.000;5.874;2023-10-13T07:21:03;16.80;;;15.90;;
11531;SDS011;5822;51.000;5.874;2023-10-13T07:23:37;16.60;;;15.60;;
11531;SDS011;5822;51.000;5.874;2023-10-13T07:26:03;17.13;;;16.13;;
11531;SDS011;5822;51.000;5.874;2023-10-13T07:28:31;16.13;;;15.32;;
11531;SDS011;5822;51.000;5.874;2023-10-13T07:31:01;16.35;;;15.45;;
11531;SDS011;5822;51.000;5.874;2023-10-13T07:33:27;16.35;;;15.45;;
11531;SDS011;5822;51.000;5.874;2023-10-13T07:35:59;16.55;;;15.65;;
11531;SDS011;5822;51.000;5.874;2023-10-13T07:38:26;16.48;;;15.60;;
11531;SDS011;5822;51.000;5.874;2023-10-13T07:40:56;16.25;;;15.35;;
11531;SDS011;5822;51.000;5.874;2023-10-13T07:43:32;16.90;;;16.00;;
11531;SDS011;5822;51.000;5.874;2023-10-13T07:45:58;16.92;;;15.90;;
11531;SDS011;5822;51.000;5.874;2023-10-13T07:48:31;16.40;;;15.50;;
11531;SDS011;5822;51.000;5.874;2023-10-13T07:51:02;16.40;;;15.50;;
11531;SDS011;5822;51.000;5.874;2023-10-13T07:53:36;16.02;;;15.10;;
11531;SDS011;5822;51.000;5.874;2023-10-13T07:56:05;15.85;;;15.00;;
11531;SDS011;5822;51.000;5.874;2023-10-13T07:58:37;16.00;;;15.10;;
11531;SDS011;5822;51.000;5.874;2023-10-13T08:01:32;15.70;;;14.90;;
11531;SDS011;5822;51.000;5.874;2023-10-13T08:03:59;15.82;;;15.02;;
11531;SDS011;5822;51.000;5.874;2023-10-13T08:06:36;15.90;;;15.10;;
11531;SDS011;5822;51.000;5.874;2023-10-13T08:09:03;15.55;;;14.65;;
11531;SDS011;5822;51.000;5.874;2023-10-13T08:11:48;15.63;;;14.73;;
11531;SDS011;5822;51.000;5.874;2023-10-13T08:14:15;15.53;;;14.73;;
11531;SDS011;5822;51.000;5.874;2023-10-13T08:16:40;15.63;;;14.67;;
11531;SDS011;5822;51.000;5.874;2023-10-13T08:19:16;16.08;;;15.18;;
11531;SDS011;5822;51.000;5.874;2023-10-13T08:21:55;15.65;;;14.85;;
11531;SDS011;5822;51.000;5.874;2023-10-13T08:24:24;15.23;;;14.43;;
11531;SDS011;5822;51.000;5.874;2023-10-13T08:27:02;15.68;;;14.88;;
11531;SDS011;5822;51.000;5.874;2023-10-13T08:29:44;15.73;;;14.85;;
11531;SDS011;5822;51.000;5.874;2023-10-13T08:32:21;15.75;;;14.95;;
11531;SDS011;5822;51.000;5.874;2023-10-13T08:34:57;15.32;;;14.52;;
11531;SDS011;5822;51.000;5.874;2023-10-13T08:37:24;16.10;;;15.17;;
11531;SDS011;5822;51.000;5.874;2023-10-13T08:39:58;15.80;;;15.00;;
11531;SDS011;5822;51.000;5.874;2023-10-13T08:45:18;15.43;;;14.63;;
11531;SDS011;5822;51.000;5.874;2023-10-13T08:48:01;15.20;;;14.40;;
11531;SDS011;5822;51.000;5.874;2023-10-13T08:53:31;15.50;;;14.70;;
11531;SDS011;5822;51.000;5.874;2023-10-13T08:58:28;16.10;;;15.20;;
11531;SDS011;5822;51.000;5.874;2023-10-13T09:01:14;15.60;;;14.80;;
11531;SDS011;5822;51.000;5.874;2023-10-13T09:03:59;15.00;;;14.30;;
11531;SDS011;5822;51.000;5.874;2023-10-13T09:09:26;15.77;;;14.98;;
11531;SDS011;5822;51.000;5.874;2023-10-13T09:11:55;15.70;;;14.90;;
11531;SDS011;5822;51.000;5.874;2023-10-13T09:14:34;16.00;;;15.20;;
11531;SDS011;5822;51.000;5.874;2023-10-13T09:17:08;15.50;;;14.70;;
11531;SDS011;5822;51.000;5.874;2023-10-13T09:19:49;16.10;;;15.20;;
11531;SDS011;5822;51.000;5.874;2023-10-13T09:22:26;15.85;;;15.00;;
11531;SDS011;5822;51.000;5.874;2023-10-13T09:24:58;16.23;;;15.43;;
11531;SDS011;5822;51.000;5.874;2023-10-13T09:27:25;15.82;;;14.93;;
11531;SDS011;5822;51.000;5.874;2023-10-13T09:29:59;16.05;;;15.15;;
11531;SDS011;5822;51.000;5.874;2023-10-13T09:32:33;16.08;;;15.27;;
11531;SDS011;5822;51.000;5.874;2023-10-13T09:35:16;15.88;;;15.00;;
11531;SDS011;5822;51.000;5.874;2023-10-13T09:37:42;16.40;;;15.60;;
11531;SDS011;5822;51.000;5.874;2023-10-13T09:40:11;17.00;;;16.10;;
11531;SDS011;5822;51.000;5.874;2023-10-13T09:42:51;17.48;;;16.58;;
11531;SDS011;5822;51.000;5.874;2023-10-13T09:45:21;16.90;;;16.00;;
11531;SDS011;5822;51.000;5.874;2023-10-13T09:47:54;16.95;;;16.05;;
11531;SDS011;5822;51.000;5.874;2023-10-13T09:50:31;16.98;;;16.08;;
11531;SDS011;5822;51.000;5.874;2023-10-13T09:53:03;16.80;;;15.90;;
11531;SDS011;5822;51.000;5.874;2023-10-13T09:55:35;17.20;;;16.30;;
11531;SDS011;5822;51.000;5.874;2023-10-13T09:58:06;17.10;;;16.20;;
11531;SDS011;5822;51.000;5.874;2023-10-13T10:00:35;16.70;;;15.80;;
11531;SDS011;5822;51.000;5.874;2023-10-13T10:03:43;17.60;;;16.60;;
11531;SDS011;5822;51.000;5.874;2023-10-13T10:06:33;17.65;;;16.65;;
11531;SDS011;5822;51.000;5.874;2023-10-13T10:09:06;17.60;;;16.60;;
11531;SDS011;5822;51.000;5.874;2023-10-13T10:17:11;17.48;;;16.50;;
11531;SDS011;5822;51.000;5.874;2023-10-13T10:19:46;17.45;;;16.52;;
11531;SDS011;5822;51.000;5.874;2023-10-13T10:22:12;17.38;;;16.38;;
11531;SDS011;5822;51.000;5.874;2023-10-13T10:24:55;17.60;;;16.60;;
11531;SDS011;5822;51.000;5.874;2023-10-13T10:27:27;16.80;;;15.90;;
11531;SDS011;5822;51.000;5.874;2023-10-13T10:29:59;17.30;;;16.30;;
11531;SDS011;5822;51.000;5.874;2023-10-13T10:32:38;16.88;;;15.98;;
11531;SDS011;5822;51.000;5.874;2023-10-13T10:35:13;17.58;;;16.58;;
11531;SDS011;5822;51.000;5.874;2023-10-13T10:37:40;17.70;;;16.70;;
11531;SDS011;5822;51.000;5.874;2023-10-13T10:40:16;17.80;;;16.80;;
11531;SDS011;5822;51.000;5.874;2023-10-13T10:43:02;17.10;;;16.10;;
11531;SDS011;5822;51.000;5.874;2023-10-13T10:45:35;17.00;;;16.10;;
11531;SDS011;5822;51.000;5.874;2023-10-13T10:48:01;16.90;;;16.00;;
11531;SDS011;5822;51.000;5.874;2023-10-13T10:50:42;17.15;;;16.25;;
11531;SDS011;5822;51.000;5.874;2023-10-13T10:53:08;18.50;;;17.40;;
11531;SDS011;5822;51.000;5.874;2023-10-13T10:55:35;17.67;;;16.67;;
11531;SDS011;5822;51.000;5.874;2023-10-13T10:58:02;17.50;;;16.50;;
11531;SDS011;5822;51.000;5.874;2023-10-13T11:00:31;16.70;;;15.80;;
11531;SDS011;5822;51.000;5.874;2023-10-13T11:03:23;16.77;;;15.90;;
11531;SDS011;5822;51.000;5.874;2023-10-13T11:05:49;16.80;;;15.90;;
11531;SDS011;5822;51.000;5.874;2023-10-13T11:08:21;16.95;;;16.05;;
11531;SDS011;5822;51.000;5.874;2023-10-13T11:10:56;17.05;;;16.15;;
11531;SDS011;5822;51.000;5.874;2023-10-13T11:13:23;17.48;;;16.58;;
11531;SDS011;5822;51.000;5.874;2023-10-13T11:15:48;17.10;;;16.20;;
11531;SDS011;5822;51.000;5.874;2023-10-13T11:18:15;16.63;;;15.73;;
11531;SDS011;5822;51.000;5.874;2023-10-13T11:20:46;17.42;;;16.42;;
11531;SDS011;5822;51.000;5.874;2023-10-13T11:23:19;17.08;;;16.08;;
11531;SDS011;5822;51.000;5.874;2023-10-13T11:25:56;16.98;;;15.98;;
11531;SDS011;5822;51.000;5.874;2023-10-13T11:28:24;17.95;;;16.95;;
11531;SDS011;5822;51.000;5.874;2023-10-13T11:30:53;17.02;;;16.13;;
11531;SDS011;5822;51.000;5.874;2023-10-13T11:33:23;16.40;;;15.50;;
11531;SDS011;5822;51.000;5.874;2023-10-13T11:35:56;16.42;;;15.52;;
11531;SDS011;5822;51.000;5.874;2023-10-13T11:38:27;16.83;;;15.90;;
11531;SDS011;5822;51.000;5.874;2023-10-13T11:41:05;17.00;;;16.10;;
11531;SDS011;5822;51.000;5.874;2023-10-13T11:46:12;17.27;;;16.38;;
11531;SDS011;5822;51.000;5.874;2023-10-13T11:48:43;18.40;;;17.30;;
11531;SDS011;5822;51.000;5.874;2023-10-13T11:51:14;17.45;;;16.45;;
11531;SDS011;5822;51.000;5.874;2023-10-13T11:53:49;17.35;;;16.35;;
11531;SDS011;5822;51.000;5.874;2023-10-13T11:56:19;16.80;;;15.90;;
11531;SDS011;5822;51.000;5.874;2023-10-13T11:58:48;16.17;;;15.27;;
11531;SDS011;5822;51.000;5.874;2023-10-13T12:01:14;16.33;;;15.48;;
11531;SDS011;5822;51.000;5.874;2023-10-13T12:03:41;16.55;;;15.65;;
11531;SDS011;5822;51.000;5.874;2023-10-13T12:06:26;17.10;;;16.20;;
11531;SDS011;5822;51.000;5.874;2023-10-13T12:09:12;16.80;;;15.88;;
11531;SDS011;5822;51.000;5.874;2023-10-13T12:12:03;16.80;;;15.90;;
11531;SDS011;5822;51.000;5.874;2023-10-13T12:14:29;17.05;;;16.05;;
11531;SDS011;5822;51.000;5.874;2023-10-13T12:17:15;16.97;;;15.97;;
11531;SDS011;5822;51.000;5.874;2023-10-13T12:19:43;17.55;;;16.45;;
11531;SDS011;5822;51.000;5.874;2023-10-13T12:22:16;16.77;;;15.88;;
11531;SDS011;5822;51.000;5.874;2023-10-13T12:24:52;17.00;;;16.10;;
11531;SDS011;5822;51.000;5.874;2023-10-13T12:27:20;16.85;;;15.90;;
11531;SDS011;5822;51.000;5.874;2023-10-13T12:30:00;16.75;;;15.85;;
11531;SDS011;5822;51.000;5.874;2023-10-13T12:32:32;17.30;;;16.20;;
11531;SDS011;5822;51.000;5.874;2023-10-13T12:34:59;17.40;;;16.40;;
11531;SDS011;5822;51.000;5.874;2023-10-13T12:37:45;17.40;;;16.40;;
11531;SDS011;5822;51.000;5.874;2023-10-13T12:40:18;17.40;;;16.40;;
11531;SDS011;5822;51.000;5.874;2023-10-13T12:43:03;17.00;;;16.10;;
11531;SDS011;5822;51.000;5.874;2023-10-13T12:45:49;17.50;;;16.40;;
11531;SDS011;5822;51.000;5.874;2023-10-13T12:48:35;17.25;;;16.25;;
11531;SDS011;5822;51.000;5.874;2023-10-13T12:51:20;16.30;;;15.45;;
11531;SDS011;5822;51.000;5.874;2023-10-13T12:54:05;16.88;;;15.98;;
11531;SDS011;5822;51.000;5.874;2023-10-13T12:56:43;17.20;;;16.30;;
11531;SDS011;5822;51.000;5.874;2023-10-13T12:59:11;16.88;;;15.88;;
11531;SDS011;5822;51.000;5.874;2023-10-13T13:01:40;16.90;;;15.90;;
11531;SDS011;5822;51.000;5.874;2023-10-13T13:04:07;16.60;;;15.60;;
11531;SDS011;5822;51.000;5.874;2023-10-13T13:06:45;16.35;;;15.45;;
11531;SDS011;5822;51.000;5.874;2023-10-13T13:09:11;16.13;;;15.23;;
11531;SDS011;5822;51.000;5.874;2023-10-13T13:11:37;15.88;;;15.07;;
11531;SDS011;5822;51.000;5.874;2023-10-13T13:14:07;15.25;;;14.45;;
11531;SDS011;5822;51.000;5.874;2023-10-13T13:16:34;15.40;;;14.60;;
11531;SDS011;5822;51.000;5.874;2023-10-13T13:19:01;15.30;;;14.50;;
11531;SDS011;5822;51.000;5.874;2023-10-13T13:21:35;15.07;;;14.27;;
11531;SDS011;5822;51.000;5.874;2023-10-13T13:24:01;15.02;;;14.23;;
11531;SDS011;5822;51.000;5.874;2023-10-13T13:26:29;14.82;;;14.10;;
11531;SDS011;5822;51.000;5.874;2023-10-13T13:28:56;14.95;;;14.15;;
11531;SDS011;5822;51.000;5.874;2023-10-13T13:31:22;15.00;;;14.20;;
11531;SDS011;5822;51.000;5.874;2023-10-13T13:33:54;15.60;;;14.70;;
11531;SDS011;5822;51.000;5.874;2023-10-13T13:36:20;14.93;;;14.23;;
11531;SDS011;5822;51.000;5.874;2023-10-13T13:38:47;15.50;;;14.65;;
11531;SDS011;5822;51.000;5.874;2023-10-13T13:41:19;15.70;;;14.85;;
11531;SDS011;5822;51.000;5.874;2023-10-13T13:43:46;15.95;;;15.05;;
11531;SDS011;5822;51.000;5.874;2023-10-13T13:46:20;15.50;;;14.70;;
11531;SDS011;5822;51.000;5.874;2023-10-13T13:49:05;15.45;;;14.65;;
11531;SDS011;5822;51.000;5.874;2023-10-13T13:51:32;15.10;;;14.30;;
11531;SDS011;5822;51.000;5.874;2023-10-13T13:53:59;15.15;;;14.35;;
11531;SDS011;5822;51.000;5.874;2023-10-13T13:56:25;15.33;;;14.43;;
11531;SDS011;5822;51.000;5.874;2023-10-13T13:58:53;15.13;;;14.23;;
11531;SDS011;5822;51.000;5.874;2023-10-13T14:01:32;14.85;;;14.15;;
11531;SDS011;5822;51.000;5.874;2023-10-13T14:03:59;14.90;;;14.10;;
11531;SDS011;5822;51.000;5.874;2023-10-13T14:06:31;14.63;;;13.93;;
11531;SDS011;5822;51.000;5.874;2023-10-13T14:08:58;14.60;;;13.90;;
11531;SDS011;5822;51.000;5.874;2023-10-13T14:11:29;14.77;;;13.98;;
11531;SDS011;5822;51.000;5.874;2023-10-13T14:16:37;15.02;;;14.20;;
11531;SDS011;5822;51.000;5.874;2023-10-13T14:19:09;15.38;;;14.57;;
11531;SDS011;5822;51.000;5.874;2023-10-13T14:21:44;15.02;;;14.23;;
11531;SDS011;5822;51.000;5.874;2023-10-13T14:24:10;15.35;;;14.55;;
11531;SDS011;5822;51.000;5.874;2023-10-13T14:26:39;15.37;;;14.57;;
11531;SDS011;5822;51.000;5.874;2023-10-13T14:29:07;15.30;;;14.50;;
11531;SDS011;5822;51.000;5.874;2023-10-13T14:31:34;15.52;;;14.73;;
11531;SDS011;5822;51.000;5.874;2023-10-13T14:34:04;15.35;;;14.55;;
11531;SDS011;5822;51.000;5.874;2023-10-13T14:36:34;15.48;;;14.68;;
11531;SDS011;5822;51.000;5.874;2023-10-13T14:39:00;16.05;;;15.15;;
11531;SDS011;5822;51.000;5.874;2023-10-13T14:41:36;15.60;;;14.70;;
11531;SDS011;5822;51.000;5.874;2023-10-13T14:44:03;15.45;;;14.65;;
11531;SDS011;5822;51.000;5.874;2023-10-13T14:46:32;15.70;;;14.90;;
11531;SDS011;5822;51.000;5.874;2023-10-13T14:49:01;15.70;;;14.90;;
11531;SDS011;5822;51.000;5.874;2023-10-13T14:51:27;16.10;;;15.20;;
11531;SDS011;5822;51.000;5.874;2023-10-13T14:53:54;15.85;;;15.05;;
11531;SDS011;5822;51.000;5.874;2023-10-13T14:56:24;15.43;;;14.63;;
11531;SDS011;5822;51.000;5.874;2023-10-13T14:58:52;15.60;;;14.80;;
11531;SDS011;5822;51.000;5.874;2023-10-13T15:01:19;16.27;;;15.38;;
11531;SDS011;5822;51.000;5.874;2023-10-13T15:03:49;15.63;;;14.83;;
11531;SDS011;5822;51.000;5.874;2023-10-13T15:06:24;15.00;;;14.20;;
11531;SDS011;5822;51.000;5.874;2023-10-13T15:08:55;15.52;;;14.70;;
11531;SDS011;5822;51.000;5.874;2023-10-13T15:11:22;15.50;;;14.70;;
11531;SDS011;5822;51.000;5.874;2023-10-13T15:13:55;15.90;;;15.05;;
11531;SDS011;5822;51.000;5.874;2023-10-13T15:16:22;16.10;;;15.20;;
11531;SDS011;5822;51.000;5.874;2023-10-13T15:18:49;15.90;;;15.00;;
11531;SDS011;5822;51.000;5.874;2023-10-13T15:21:20;15.48;;;14.68;;
11531;SDS011;5822;51.000;5.874;2023-10-13T15:24:02;15.30;;;14.50;;
11531;SDS011;5822;51.000;5.874;2023-10-13T15:26:29;15.30;;;14.50;;
11531;SDS011;5822;51.000;5.874;2023-10-13T15:28:57;15.40;;;14.60;;
11531;SDS011;5822;51.000;5.874;2023-10-13T15:31:23;15.85;;;14.95;;
11531;SDS011;5822;51.000;5.874;2023-10-13T15:33:54;15.60;;;14.80;;
11531;SDS011;5822;51.000;5.874;2023-10-13T15:36:21;15.30;;;14.50;;
11531;SDS011;5822;51.000;5.874;2023-10-13T15:38:48;15.47;;;14.67;;
11531;SDS011;5822;51.000;5.874;2023-10-13T15:41:24;15.13;;;14.32;;